Skip Navigation Links Skip Navigation Links

Current Weather

Schefferville, P.Q.

For information only: do not use for flight planning or navigation.
Latest weather
Observation time Thursday, October 17, 2019 2:00 AM EDT
Local time Thursday, October 17, 2019 2:18 AM EDT
Flight conditions Marginal Visual Meteorological Conditions
Winds
Wind direction West (280°)
Wind speed 2 mph
Visibility 9 mi.
Sky condition
Ceiling 1,400 ft. overcast
Cloud layer overcast 1,400 ft.
Temperature 36°F
Dewpoint 34°F
Altimeter 29.86 in.Hg
Derived measurements
Relative humidity 93%
Wind chill 36°F
Density altitude -891 ft.
Sea-level pressure 29.93 in.Hg
Remarks
Fully automated report.
METAR CYKL 170600Z AUTO 28002KT 9SM OVC014 02/01 A2986 RMK SLP137

Settings

Location code

InnerDrive.Weather 4.0.6770.0 Release CLR 4.0.30319.42000
Copyright ©2018 Inner Drive Technology. All rights reserved. Portions Copyright ©1986-2018 David Braverman.

Find weather

Site navigation


Skip Navigation Links

Place info

Page info

PayPal - The safer, easier way to pay online!

Return home.

Copyright ©2019 Inner Drive Technology. Purveyors of fine, hand-crafted computer software. Page printed 2019-10-17T06:18:23 UTC.